createdAt,value
2023-04-18T01:20:41.481Z,6.95
2023-04-18T01:23:10.326Z,7.24
2023-04-18T01:25:37.311Z,6.93
2023-04-18T01:28:04.752Z,7.06
2023-04-18T01:30:31.181Z,6.91
2023-04-18T01:32:57.604Z,6.97
2023-04-18T01:35:24.023Z,7.03
2023-04-18T01:37:50.448Z,7.04
2023-04-18T01:40:16.964Z,6.91
2023-04-18T01:42:43.458Z,7.08
2023-04-18T01:45:11.877Z,7.04
2023-04-18T01:47:38.289Z,6.90
2023-04-18T01:50:05.653Z,7.09
2023-04-18T01:52:32.080Z,7.11
2023-04-18T01:54:58.582Z,6.89
2023-04-18T01:57:25.023Z,7.17
2023-04-18T01:59:51.474Z,7.21
2023-04-18T02:02:17.900Z,7.33
2023-04-18T02:04:44.368Z,7.41
2023-04-18T02:07:10.781Z,7.44
2023-04-18T02:09:37.152Z,7.42
2023-04-18T02:12:03.667Z,7.54
2023-04-18T02:14:31.948Z,7.56
2023-04-18T02:16:59.189Z,7.58
2023-04-18T02:19:25.692Z,7.64
2023-04-18T02:21:52.067Z,7.75
2023-04-18T02:24:18.618Z,7.51
2023-04-18T02:26:45.066Z,7.75
2023-04-18T02:29:11.636Z,7.80
2023-04-18T02:31:39.990Z,7.90
2023-04-18T02:34:07.098Z,7.88
2023-04-18T02:36:33.812Z,7.95
2023-04-18T02:39:00.410Z,7.90
2023-04-18T02:41:26.810Z,7.90
2023-04-18T02:43:53.700Z,8.02
2023-04-18T02:46:20.303Z,8.04
2023-04-18T02:48:46.765Z,8.07
2023-04-18T02:51:13.130Z,8.04
2023-04-18T02:53:39.519Z,8.09
2023-04-18T02:56:06.401Z,8.08
2023-04-18T02:58:34.703Z,8.12
2023-04-18T03:01:01.095Z,8.16
2023-04-18T03:03:27.522Z,8.17
2023-04-18T03:05:53.904Z,8.11
2023-04-18T03:08:20.357Z,8.20
2023-04-18T03:10:46.740Z,8.26
2023-04-18T03:13:13.189Z,8.31
2023-04-18T03:15:39.608Z,8.27
2023-04-18T03:18:06.157Z,8.35
2023-04-18T03:20:32.569Z,8.33
2023-04-18T03:22:58.937Z,8.36
2023-04-18T03:25:25.560Z,8.20
2023-04-18T03:27:51.959Z,8.01
2023-04-18T03:30:18.428Z,8.01
2023-04-18T03:32:46.606Z,7.99
2023-04-18T03:35:12.995Z,8.04
2023-04-18T03:37:39.367Z,8.10
2023-04-18T03:40:06.406Z,8.18
2023-04-18T03:42:32.821Z,8.15
2023-04-18T03:44:59.178Z,7.93
2023-04-18T03:47:25.569Z,8.03
2023-04-18T03:49:54.116Z,8.12
2023-04-18T03:52:20.508Z,8.18
2023-04-18T03:54:46.880Z,8.03
2023-04-18T03:57:13.264Z,8.14
2023-04-18T03:59:39.625Z,8.14
2023-04-18T04:02:06.030Z,8.10
2023-04-18T04:04:32.496Z,8.04
2023-04-18T04:06:59.596Z,8.12
2023-04-18T04:09:26.313Z,8.23
2023-04-18T04:11:52.679Z,8.14
2023-04-18T04:14:19.073Z,8.06
2023-04-18T04:16:45.807Z,8.13
2023-04-18T04:19:12.218Z,8.14
2023-04-18T04:21:38.573Z,8.12
2023-04-18T04:24:05.084Z,8.13
2023-04-18T04:26:31.661Z,8.24
2023-04-18T04:28:58.025Z,8.13
2023-04-18T04:31:24.412Z,8.17
2023-04-18T04:33:50.797Z,8.11
2023-04-18T04:36:19.425Z,8.19
2023-04-18T04:38:45.868Z,8.20
2023-04-18T04:41:12.633Z,8.32
2023-04-18T04:43:41.097Z,8.32
2023-04-18T04:46:07.777Z,8.42
2023-04-18T04:48:34.223Z,8.27
2023-04-18T04:51:01.236Z,8.39
2023-04-18T04:53:32.417Z,8.43
2023-04-18T04:55:59.163Z,8.34
2023-04-18T04:58:25.848Z,8.50
2023-04-18T05:00:53.055Z,8.43
2023-04-18T05:03:19.748Z,8.36
2023-04-18T05:05:47.024Z,8.26
2023-04-18T05:08:13.556Z,8.33
2023-04-18T05:10:40.006Z,8.46
2023-04-18T05:13:06.362Z,8.53
2023-04-18T05:15:32.751Z,8.41
2023-04-18T05:17:59.246Z,8.42
2023-04-18T05:20:25.778Z,8.39
2023-04-18T05:22:52.246Z,8.55
2023-04-18T05:25:18.962Z,8.56
2023-04-18T05:27:46.291Z,8.69
2023-04-18T05:30:13.087Z,8.70
2023-04-18T05:32:39.447Z,8.76
2023-04-18T05:35:07.021Z,8.71
2023-04-18T05:37:33.434Z,8.73
2023-04-18T05:40:00.982Z,8.57
2023-04-18T05:42:27.642Z,8.89
2023-04-18T05:44:54.104Z,8.88
2023-04-18T05:47:20.668Z,8.94
2023-04-18T05:49:47.070Z,9.07
2023-04-18T05:52:13.457Z,9.03
2023-04-18T05:54:39.811Z,9.04
2023-04-18T05:57:06.276Z,9.07
2023-04-18T05:59:32.744Z,9.11
2023-04-18T06:01:59.131Z,9.24
2023-04-18T06:04:25.672Z,9.21
2023-04-18T06:06:52.403Z,9.15
2023-04-18T06:09:18.813Z,9.23
2023-04-18T06:11:45.342Z,9.40
2023-04-18T06:14:12.086Z,9.30
2023-04-18T06:16:38.774Z,9.47
2023-04-18T06:19:05.369Z,9.64
2023-04-18T06:21:32.017Z,9.46
2023-04-18T06:23:58.411Z,9.52
2023-04-18T06:26:24.794Z,9.63
2023-04-18T06:28:51.179Z,9.73
2023-04-18T06:31:17.705Z,10.00
2023-04-18T06:33:44.170Z,10.83
2023-04-18T06:36:10.547Z,11.02
2023-04-18T06:38:36.956Z,10.57
2023-04-18T06:41:03.484Z,10.34
2023-04-18T06:43:29.914Z,10.20
2023-04-18T06:45:56.782Z,9.83
2023-04-18T06:48:23.323Z,10.36
2023-04-18T06:50:49.766Z,10.08
2023-04-18T06:53:16.243Z,10.12
2023-04-18T06:55:42.742Z,10.24
2023-04-18T06:58:10.070Z,10.39
2023-04-18T07:00:36.568Z,10.26
2023-04-18T07:03:11.120Z,10.31
2023-04-18T07:05:40.897Z,10.72
2023-04-18T07:08:07.866Z,10.43
2023-04-18T07:10:34.260Z,10.64
2023-04-18T07:13:00.688Z,10.90
2023-04-18T07:15:27.112Z,11.19
2023-04-18T07:17:53.539Z,11.26
2023-04-18T07:20:19.996Z,11.48
2023-04-18T07:22:48.061Z,11.83
2023-04-18T07:25:14.538Z,12.25
2023-04-18T07:27:41.044Z,13.00
2023-04-18T07:30:08.050Z,13.97
2023-04-18T07:32:34.504Z,14.22
2023-04-18T07:35:01.253Z,14.08
2023-04-18T07:37:27.710Z,14.21
2023-04-18T07:39:54.107Z,14.68
2023-04-18T07:42:20.564Z,14.46
2023-04-18T07:44:47.455Z,14.89
2023-04-18T07:47:13.831Z,15.46
2023-04-18T07:49:40.262Z,14.51
2023-04-18T07:52:07.092Z,13.50
2023-04-18T07:54:33.473Z,13.53
2023-04-18T07:56:59.933Z,14.39
2023-04-18T07:59:27.220Z,14.43
2023-04-18T08:01:53.654Z,14.81
2023-04-18T08:04:20.280Z,15.09
2023-04-18T08:06:46.813Z,15.63
2023-04-18T08:09:13.347Z,15.72
2023-04-18T08:11:42.241Z,14.39
2023-04-18T08:14:08.630Z,15.01
2023-04-18T08:16:35.031Z,14.66
2023-04-18T08:19:01.406Z,14.52
2023-04-18T08:21:27.798Z,14.60
2023-04-18T08:23:54.155Z,15.25
2023-04-18T08:26:21.815Z,14.90
2023-04-18T08:28:48.260Z,14.28
2023-04-18T08:31:15.355Z,14.88
2023-04-18T08:33:41.954Z,15.59
2023-04-18T08:36:08.792Z,15.96
2023-04-18T08:38:35.424Z,16.64
2023-04-18T08:41:01.850Z,15.62
2023-04-18T08:43:30.119Z,15.30
2023-04-18T08:46:00.667Z,15.27
2023-04-18T08:48:30.572Z,14.61
2023-04-18T08:50:58.844Z,14.55
2023-04-18T08:53:26.685Z,14.42
2023-04-18T08:55:57.028Z,14.91
2023-04-18T08:58:24.344Z,15.48
2023-04-18T09:00:54.831Z,14.70
2023-04-18T09:03:39.353Z,15.09
2023-04-18T09:06:08.379Z,16.15
2023-04-18T09:08:35.449Z,15.57
2023-04-18T09:11:28.918Z,16.69
2023-04-18T09:13:58.580Z,16.32
2023-04-18T09:16:27.477Z,17.06
2023-04-18T09:19:13.714Z,16.11
2023-04-18T09:21:42.339Z,16.43
2023-04-18T09:24:29.362Z,15.71
2023-04-18T09:26:58.586Z,17.44
2023-04-18T09:29:46.633Z,16.81
2023-04-18T09:32:29.182Z,17.14
2023-04-18T09:35:03.981Z,16.34
2023-04-18T09:37:30.988Z,16.60
2023-04-18T09:39:57.424Z,17.29
2023-04-18T09:42:24.635Z,16.94
2023-04-18T09:45:04.806Z,16.60
2023-04-18T09:47:34.822Z,15.81
2023-04-18T09:50:06.470Z,16.95
2023-04-18T09:52:43.573Z,17.38
2023-04-18T09:55:13.050Z,18.76
2023-04-18T09:57:42.926Z,17.09
2023-04-18T10:00:17.273Z,17.14
2023-04-18T10:02:59.298Z,17.69
2023-04-18T10:05:28.579Z,18.45
2023-04-18T10:07:55.130Z,18.45
2023-04-18T10:10:21.722Z,18.62
2023-04-18T10:12:50.849Z,18.53
2023-04-18T10:15:19.887Z,17.95
2023-04-18T10:18:03.759Z,18.47
2023-04-18T10:20:33.492Z,17.59
2023-04-18T10:23:00.517Z,18.62
2023-04-18T10:25:39.275Z,18.89
2023-04-18T10:28:07.214Z,19.02
2023-04-18T10:31:02.902Z,18.46
2023-04-18T10:33:41.079Z,17.84
2023-04-18T10:36:08.965Z,18.53
2023-04-18T10:38:38.843Z,18.80
2023-04-18T10:41:14.454Z,18.78
2023-04-18T10:44:08.970Z,19.56
2023-04-18T10:46:36.581Z,19.01
2023-04-18T10:49:31.139Z,19.57
2023-04-18T10:52:00.637Z,19.01
2023-04-18T10:54:48.540Z,18.96
2023-04-18T10:57:15.392Z,18.35
2023-04-18T10:59:43.382Z,18.83
2023-04-18T11:02:21.830Z,18.32
2023-04-18T11:04:55.697Z,18.28
2023-04-18T11:07:35.950Z,19.35
2023-04-18T11:10:03.586Z,18.96
2023-04-18T11:12:36.287Z,19.40
2023-04-18T11:15:09.353Z,18.81
2023-04-18T11:17:35.889Z,19.21
2023-04-18T11:20:12.615Z,18.69
2023-04-18T11:22:49.201Z,18.76
2023-04-18T11:25:17.052Z,18.51
2023-04-18T11:27:45.187Z,19.07
2023-04-18T11:30:12.606Z,19.91
2023-04-18T11:32:39.421Z,19.15
2023-04-18T11:35:08.691Z,19.31
2023-04-18T11:37:36.071Z,19.60
2023-04-18T11:40:03.089Z,19.36
2023-04-18T11:42:33.206Z,17.91
2023-04-18T11:45:00.013Z,17.97
2023-04-18T11:47:31.646Z,18.20
2023-04-18T11:50:00.259Z,19.41
2023-04-18T11:52:28.587Z,18.72
2023-04-18T11:54:56.524Z,18.61
2023-04-18T11:57:22.925Z,18.52
2023-04-18T11:59:51.113Z,18.78
2023-04-18T12:02:17.947Z,19.47
2023-04-18T12:04:53.086Z,20.39
2023-04-18T12:07:49.703Z,19.65
2023-04-18T12:10:21.886Z,19.92
2023-04-18T12:12:49.658Z,20.08
2023-04-18T12:15:17.848Z,19.85
2023-04-18T12:17:45.816Z,20.36
2023-04-18T12:20:13.411Z,20.26
2023-04-18T12:22:51.308Z,20.60
2023-04-18T12:25:23.530Z,19.34
2023-04-18T12:27:56.779Z,20.85
2023-04-18T12:30:25.658Z,20.22
2023-04-18T12:32:54.539Z,21.04
2023-04-18T12:35:22.306Z,20.40
2023-04-18T12:37:49.874Z,19.96
2023-04-18T12:40:18.802Z,19.65
2023-04-18T12:42:47.429Z,20.07
2023-04-18T12:45:15.103Z,18.41
2023-04-18T12:47:43.248Z,18.44
2023-04-18T12:50:11.747Z,20.86
2023-04-18T12:52:40.632Z,21.14
2023-04-18T12:55:07.668Z,19.88
2023-04-18T12:57:34.210Z,19.87
2023-04-18T13:00:00.865Z,20.94
2023-04-18T13:02:29.199Z,19.33
2023-04-18T13:04:57.187Z,19.23
2023-04-18T13:07:24.185Z,18.12
2023-04-18T13:09:50.600Z,19.44
2023-04-18T13:12:16.963Z,19.25
2023-04-18T13:14:43.361Z,18.60
2023-04-18T13:17:09.818Z,19.26
2023-04-18T13:19:36.412Z,19.09
2023-04-18T13:22:02.943Z,19.26
2023-04-18T13:24:29.307Z,19.33
2023-04-18T13:26:56.535Z,17.69
2023-04-18T13:29:23.058Z,18.18
2023-04-18T13:31:49.497Z,18.46
2023-04-18T13:34:15.996Z,19.34
2023-04-18T13:36:42.781Z,18.86
2023-04-18T13:39:10.518Z,17.73
2023-04-18T13:41:36.902Z,18.02
2023-04-18T13:44:03.342Z,17.91
2023-04-18T13:46:30.902Z,19.09
2023-04-18T13:48:57.437Z,19.27
2023-04-18T13:51:23.828Z,19.70
2023-04-18T13:53:51.536Z,18.86
2023-04-18T13:56:17.901Z,17.98
2023-04-18T13:58:44.261Z,18.49
2023-04-18T14:01:10.783Z,18.16
2023-04-18T14:03:38.813Z,19.09
2023-04-18T14:06:06.513Z,19.01
2023-04-18T14:08:34.069Z,17.66
2023-04-18T14:11:00.516Z,18.18
2023-04-18T14:13:27.103Z,18.80
2023-04-18T14:15:54.002Z,18.82
2023-04-18T14:18:21.748Z,18.85
2023-04-18T14:20:48.628Z,17.24
2023-04-18T14:23:15.899Z,18.17
2023-04-18T14:25:42.876Z,18.71
2023-04-18T14:28:11.965Z,18.48
2023-04-18T14:30:39.708Z,18.27
2023-04-18T14:33:07.240Z,18.35
2023-04-18T14:35:33.644Z,18.17
2023-04-18T14:38:00.003Z,17.98
2023-04-18T14:40:26.775Z,18.14
2023-04-18T14:42:53.151Z,18.35
2023-04-18T14:45:19.555Z,17.76
2023-04-18T14:47:46.068Z,19.07
2023-04-18T14:50:12.630Z,18.30
2023-04-18T14:52:39.815Z,18.88
2023-04-18T14:55:07.789Z,18.94
2023-04-18T14:57:36.627Z,18.34
2023-04-18T15:00:05.497Z,18.79
2023-04-18T15:02:32.229Z,18.61
2023-04-18T15:04:59.185Z,16.61
2023-04-18T15:07:25.678Z,16.71
2023-04-18T15:09:52.112Z,17.69
2023-04-18T15:12:18.547Z,17.59
2023-04-18T15:14:44.970Z,17.72
2023-04-18T15:17:11.308Z,18.40
2023-04-18T15:19:37.657Z,17.46
2023-04-18T15:22:04.244Z,17.50
2023-04-18T15:24:30.640Z,17.06
2023-04-18T15:26:58.654Z,17.09
2023-04-18T15:29:25.224Z,17.45
2023-04-18T15:31:51.655Z,17.43
2023-04-18T15:34:18.117Z,17.30
2023-04-18T15:36:46.475Z,17.33
2023-04-18T15:39:13.126Z,16.97
2023-04-18T15:41:41.980Z,16.18
2023-04-18T15:44:08.490Z,16.14
2023-04-18T15:46:38.042Z,16.58
2023-04-18T15:49:05.065Z,16.60
2023-04-18T15:51:31.472Z,17.02
2023-04-18T15:53:57.841Z,16.06
2023-04-18T15:56:26.048Z,16.90
2023-04-18T15:58:52.852Z,16.87
2023-04-18T16:01:19.274Z,16.73
2023-04-18T16:03:45.722Z,17.12
2023-04-18T16:06:14.184Z,16.57
2023-04-18T16:08:40.761Z,16.99
2023-04-18T16:11:10.271Z,16.43
2023-04-18T16:13:38.266Z,16.90
2023-04-18T16:16:05.725Z,16.18
2023-04-18T16:18:32.256Z,16.51
2023-04-18T16:20:58.979Z,16.27
2023-04-18T16:23:26.586Z,15.77
2023-04-18T16:25:55.215Z,16.27
2023-04-18T16:28:22.289Z,16.26
2023-04-18T16:30:48.944Z,16.66
2023-04-18T16:33:16.008Z,15.58
2023-04-18T16:35:42.430Z,15.74
2023-04-18T16:38:08.819Z,15.72
2023-04-18T16:40:35.705Z,15.90
2023-04-18T16:43:02.294Z,15.35
2023-04-18T16:45:28.669Z,15.66
2023-04-18T16:47:55.130Z,15.44
2023-04-18T16:50:22.423Z,15.19
2023-04-18T16:52:48.891Z,15.56
2023-04-18T16:55:15.323Z,15.86
2023-04-18T16:57:41.701Z,15.91
2023-04-18T17:00:09.908Z,15.77
2023-04-18T17:02:36.489Z,15.47
2023-04-18T17:05:03.086Z,15.69
2023-04-18T17:07:30.324Z,15.02
2023-04-18T17:09:56.705Z,15.21
2023-04-18T17:12:23.062Z,15.42
2023-04-18T17:14:49.475Z,15.03
2023-04-18T17:17:15.909Z,15.17
2023-04-18T17:19:42.270Z,14.91
2023-04-18T17:22:08.770Z,14.83
2023-04-18T17:24:35.265Z,14.49
2023-04-18T17:27:01.729Z,14.71
2023-04-18T17:29:28.068Z,14.56
2023-04-18T17:31:54.548Z,14.19
2023-04-18T17:34:21.291Z,14.17
2023-04-18T17:36:47.974Z,14.11
2023-04-18T17:39:16.305Z,13.90
2023-04-18T17:41:45.028Z,13.95
2023-04-18T17:44:11.436Z,13.42
2023-04-18T17:46:37.956Z,13.63
2023-04-18T17:49:04.753Z,13.68
2023-04-18T17:51:31.231Z,13.52
2023-04-18T17:53:57.765Z,13.48
2023-04-18T17:56:24.275Z,13.50
2023-04-18T17:58:51.389Z,13.48
2023-04-18T18:01:19.910Z,13.44
2023-04-18T18:03:48.195Z,13.34
2023-04-18T18:06:15.296Z,13.30
2023-04-18T18:08:43.050Z,13.19
2023-04-18T18:11:10.610Z,13.13
2023-04-18T18:13:38.858Z,13.20
2023-04-18T18:16:06.181Z,13.13
2023-04-18T18:18:32.729Z,13.23
2023-04-18T18:20:59.161Z,12.89
2023-04-18T18:23:25.581Z,12.95
2023-04-18T18:25:52.110Z,12.83
2023-04-18T18:28:18.550Z,12.95
2023-04-18T18:30:44.914Z,12.91
2023-04-18T18:33:11.278Z,12.75
2023-04-18T18:35:37.640Z,12.77
2023-04-18T18:38:04.142Z,12.77
2023-04-18T18:40:30.598Z,12.74
2023-04-18T18:42:57.290Z,12.37
2023-04-18T18:45:23.814Z,12.46
2023-04-18T18:47:51.024Z,12.36
2023-04-18T18:50:17.643Z,12.52
2023-04-18T18:52:44.125Z,12.33
2023-04-18T18:55:11.135Z,12.33
2023-04-18T18:57:37.764Z,12.30
2023-04-18T19:00:09.281Z,12.28
2023-04-18T19:02:36.000Z,12.01
2023-04-18T19:05:03.055Z,11.87
2023-04-18T19:07:30.174Z,11.82
2023-04-18T19:09:56.782Z,11.86
2023-04-18T19:12:23.242Z,11.81
2023-04-18T19:14:49.762Z,11.70
2023-04-18T19:17:18.462Z,11.65
2023-04-18T19:19:44.838Z,11.72
2023-04-18T19:22:11.359Z,11.73
2023-04-18T19:24:37.740Z,11.57
2023-04-18T19:27:04.321Z,11.48
2023-04-18T19:29:32.777Z,11.61
2023-04-18T19:31:59.534Z,11.51
2023-04-18T19:34:26.061Z,11.57
2023-04-18T19:36:52.473Z,11.43
2023-04-18T19:39:18.829Z,11.43
2023-04-18T19:41:45.977Z,11.30
2023-04-18T19:44:12.388Z,11.30
2023-04-18T19:46:39.057Z,11.13
2023-04-18T19:49:05.905Z,11.19
2023-04-18T19:51:32.382Z,10.90
2023-04-18T19:53:58.826Z,11.03
2023-04-18T19:56:25.265Z,11.17
2023-04-18T19:58:51.657Z,10.92
2023-04-18T20:01:21.689Z,10.99
2023-04-18T20:03:48.384Z,11.04
2023-04-18T20:06:16.731Z,10.94
2023-04-18T20:08:43.136Z,10.86
2023-04-18T20:11:11.203Z,10.73
2023-04-18T20:13:38.072Z,10.90
2023-04-18T20:16:05.539Z,10.97
2023-04-18T20:18:32.411Z,10.79
2023-04-18T20:20:58.919Z,10.58
2023-04-18T20:23:25.482Z,10.72
2023-04-18T20:25:51.860Z,10.67
2023-04-18T20:28:18.234Z,10.53
2023-04-18T20:30:45.620Z,10.80
2023-04-18T20:33:12.084Z,10.77
2023-04-18T20:35:38.807Z,10.75
2023-04-18T20:38:07.126Z,10.68
2023-04-18T20:40:34.162Z,10.80
2023-04-18T20:43:02.893Z,10.83
2023-04-18T20:45:29.743Z,10.84
2023-04-18T20:47:58.761Z,10.75
2023-04-18T20:50:25.369Z,10.68
2023-04-18T20:52:51.716Z,10.74
2023-04-18T20:55:18.238Z,10.71
2023-04-18T20:57:44.699Z,10.66
2023-04-18T21:00:11.860Z,10.75
2023-04-18T21:02:38.398Z,10.71
2023-04-18T21:05:05.260Z,10.66
2023-04-18T21:07:32.130Z,10.63
2023-04-18T21:09:58.497Z,10.72
2023-04-18T21:12:24.884Z,10.63
2023-04-18T21:14:51.278Z,10.73
2023-04-18T21:17:17.723Z,10.75
2023-04-18T21:19:47.949Z,10.84
2023-04-18T21:22:15.815Z,10.54
2023-04-18T21:24:42.405Z,10.60
2023-04-18T21:27:10.657Z,10.64
2023-04-18T21:29:37.082Z,10.69
2023-04-18T21:32:03.596Z,10.59
2023-04-18T21:34:29.971Z,10.43
2023-04-18T21:36:57.691Z,10.48
2023-04-18T21:39:24.050Z,10.55
2023-04-18T21:41:50.543Z,10.58
2023-04-18T21:44:18.791Z,10.54
2023-04-18T21:46:45.458Z,10.39
2023-04-18T21:49:11.915Z,10.48
2023-04-18T21:51:38.383Z,10.48
2023-04-18T21:54:07.193Z,10.48
2023-04-18T21:56:33.637Z,10.50
2023-04-18T21:59:00.012Z,10.47
2023-04-18T22:01:26.453Z,10.36
2023-04-18T22:03:53.124Z,10.37
2023-04-18T22:06:20.716Z,10.28
2023-04-18T22:08:48.108Z,10.23
2023-04-18T22:11:15.663Z,10.27
2023-04-18T22:13:45.061Z,10.24
2023-04-18T22:16:11.830Z,10.24
2023-04-18T22:18:38.297Z,10.19
2023-04-18T22:21:04.775Z,10.26
2023-04-18T22:23:31.219Z,10.24
2023-04-18T22:25:57.757Z,10.16
2023-04-18T22:28:24.124Z,10.17
2023-04-18T22:30:51.173Z,10.22
2023-04-18T22:33:17.608Z,10.23
2023-04-18T22:35:44.035Z,10.32
2023-04-18T22:38:10.536Z,10.08
2023-04-18T22:40:36.963Z,10.10
2023-04-18T22:43:03.330Z,10.01
2023-04-18T22:45:29.692Z,10.12
2023-04-18T22:47:56.152Z,9.96
2023-04-18T22:50:22.616Z,9.82
2023-04-18T22:52:49.064Z,9.93
2023-04-18T22:55:16.439Z,9.85
2023-04-18T22:57:42.860Z,9.97
2023-04-18T23:00:10.137Z,9.84
2023-04-18T23:02:36.903Z,9.88
2023-04-18T23:05:05.108Z,9.59
2023-04-18T23:07:31.616Z,9.76
2023-04-18T23:09:57.986Z,9.86
2023-04-18T23:12:24.597Z,9.75
2023-04-18T23:14:51.017Z,9.78
2023-04-18T23:17:17.399Z,9.78
2023-04-18T23:19:45.081Z,9.61
2023-04-18T23:22:11.508Z,9.76
2023-04-18T23:24:37.917Z,9.73
2023-04-18T23:27:04.367Z,9.67
2023-04-18T23:29:30.724Z,9.69
2023-04-18T23:31:57.131Z,9.63
2023-04-18T23:34:23.627Z,9.52
2023-04-18T23:36:50.113Z,9.57
2023-04-18T23:39:18.488Z,9.51
2023-04-18T23:41:45.538Z,9.42
2023-04-18T23:44:11.899Z,9.52
2023-04-18T23:46:38.313Z,9.59
2023-04-18T23:49:04.670Z,9.53
2023-04-18T23:51:31.050Z,9.65
2023-04-18T23:53:57.428Z,9.58
2023-04-18T23:56:23.888Z,9.65
2023-04-18T23:58:50.505Z,9.50
